Time;durP1;ratioP1;P1;durP2;ratioP2;P2;SDS_P1;SDS_P2;PMS_P1;PMS_P2;Temp;Humidity;BMP_temperature;BMP_pressure;BME280_temperature;BME280_humidity;BME280_pressure;Samples;Min_cycle;Max_cycle;Signal;HPM_P1;HPM_P2
2022/08/10 00:00:52;;;;;;;2.47;1.40;;;;;;;21.90;38.94;97375.56;6216633;23;20024;-82
2022/08/10 00:03:19;;;;;;;1.17;1.08;;;;;;;21.88;39.05;97374.19;6214707;23;20361;-81
2022/08/10 00:05:48;;;;;;;1.15;1.05;;;;;;;21.87;39.13;97372.59;6214643;23;20056;-82
2022/08/10 00:08:19;;;;;;;;;;;;;;;21.87;38.93;97380.56;6215132;23;20083;-82
2022/08/10 00:10:50;;;;;;;4.32;1.42;;;;;;;21.81;39.13;97371.66;6214382;23;19966;-82
2022/08/10 00:13:18;;;;;;;1.65;1.42;;;;;;;21.77;39.09;97366.00;6214734;23;20060;-81
2022/08/10 00:15:46;;;;;;;1.65;1.20;;;;;;;21.76;39.26;97376.88;6214531;23;20411;-82
2022/08/10 00:18:22;;;;;;;3.00;1.50;;;;;;;21.71;39.47;97380.25;6214340;23;20024;-82
2022/08/10 00:21:02;;;;;;;1.33;1.23;;;;;;;21.69;39.49;97373.53;6213686;23;20016;-82
2022/08/10 00:23:29;;;;;;;4.70;1.35;;;;;;;21.66;39.45;97377.47;6214499;23;20051;-82
2022/08/10 00:25:57;;;;;;;2.67;1.45;;;;;;;21.67;39.78;97384.41;6214832;23;20052;-82
2022/08/10 00:28:24;;;;;;;3.00;1.10;;;;;;;21.69;39.62;97384.16;6214402;23;20020;-82
2022/08/10 00:30:52;;;;;;;2.70;1.42;;;;;;;21.65;39.51;97377.72;6214876;23;20016;-82
2022/08/10 00:33:20;;;;;;;1.60;1.33;;;;;;;21.61;39.60;97382.69;6216568;23;20052;-82
2022/08/10 00:35:50;;;;;;;1.50;1.40;;;;;;;21.61;39.90;97372.06;6216362;23;20104;-82
2022/08/10 00:38:17;;;;;;;1.45;1.33;;;;;;;21.62;39.67;97376.31;6216154;23;20059;-82
2022/08/10 00:40:45;;;;;;;1.58;1.20;;;;;;;21.62;39.84;97373.66;6215894;23;20070;-82
2022/08/10 00:43:13;;;;;;;1.27;1.10;;;;;;;21.58;39.62;97376.00;6215923;23;20337;-82
2022/08/10 00:45:41;;;;;;;1.80;1.70;;;;;;;21.57;39.63;97370.91;6216212;23;20409;-82
2022/08/10 00:48:09;;;;;;;1.20;1.10;;;;;;;21.53;39.81;97369.75;6215938;23;20031;-82
2022/08/10 00:50:37;;;;;;;1.42;1.30;;;;;;;21.49;40.12;97372.06;6215446;23;20124;-82
2022/08/10 00:53:06;;;;;;;1.23;1.13;;;;;;;21.48;40.16;97372.31;6216266;23;20048;-81
2022/08/10 00:55:35;;;;;;;4.47;1.27;;;;;;;21.46;39.97;97369.09;6216247;23;20024;-82
2022/08/10 00:58:23;;;;;;;1.60;1.25;;;;;;;21.44;40.15;97368.50;6220826;23;20025;-82
2022/08/10 01:00:52;;;;;;;1.10;1.10;;;;;;;21.40;40.31;97365.47;6219271;23;20024;-82
2022/08/10 01:03:20;;;;;;;1.33;1.20;;;;;;;21.40;40.52;97366.25;6218942;23;20021;-82
2022/08/10 01:06:14;;;;;;;1.27;1.15;;;;;;;21.35;40.32;97368.81;6218627;23;20021;-82
2022/08/10 01:08:51;;;;;;;2.05;1.50;;;;;;;21.28;40.39;97351.41;6216634;23;20059;-82
2022/08/10 01:11:26;;;;;;;1.50;1.40;;;;;;;21.24;40.59;97356.38;6215021;23;20547;-82
2022/08/10 01:14:21;;;;;;;2.53;1.23;;;;;;;21.18;40.38;97357.28;6215571;23;20363;-82
2022/08/10 01:16:54;;;;;;;2.63;1.40;;;;;;;21.14;40.47;97362.28;6215971;23;20478;-81
2022/08/10 01:19:42;;;;;;;1.13;1.13;;;;;;;21.13;40.50;97355.31;6215558;23;20024;-82
2022/08/10 01:22:40;;;;;;;4.15;1.63;;;;;;;21.10;40.48;97355.81;6214980;23;20024;-82
2022/08/10 01:25:35;;;;;;;5.80;1.67;;;;;;;21.08;40.57;97357.88;6215838;23;20024;-81
2022/08/10 01:28:33;;;;;;;2.30;1.30;;;;;;;21.07;40.63;97355.44;6215424;23;20535;-82
2022/08/10 01:31:04;;;;;;;1.30;1.20;;;;;;;21.04;40.72;97351.41;6215532;23;20099;-82
2022/08/10 01:33:35;;;;;;;4.57;1.20;;;;;;;21.03;40.78;97356.94;6215422;23;20024;-82
2022/08/10 01:36:28;;;;;;;1.65;1.33;;;;;;;20.98;40.66;97353.13;6215439;23;20076;-82
2022/08/10 01:39:02;;;;;;;2.30;1.48;;;;;;;20.95;40.64;97358.91;6215822;23;20357;-82
2022/08/10 01:41:32;;;;;;;2.95;1.55;;;;;;;20.89;40.90;97354.50;6214928;23;20016;-81
2022/08/10 01:44:19;;;;;;;3.28;1.50;;;;;;;20.85;40.87;97356.00;6216103;23;20025;-82
2022/08/10 01:46:52;;;;;;;2.40;1.48;;;;;;;20.82;40.90;97353.81;6215730;23;20444;-82
2022/08/10 01:49:25;;;;;;;1.75;1.50;;;;;;;20.79;40.84;97348.94;6215977;23;20074;-82
2022/08/10 01:51:56;;;;;;;2.13;1.50;;;;;;;20.77;40.87;97359.81;6215386;23;20027;-82
2022/08/10 01:54:28;;;;;;;2.13;1.02;;;;;;;20.74;41.05;97351.50;6215681;23;20357;-82
2022/08/10 01:56:59;;;;;;;1.30;1.20;;;;;;;20.74;40.84;97354.94;6215154;23;20549;-81
2022/08/10 01:59:32;;;;;;;2.60;1.30;;;;;;;20.71;41.00;97352.75;6215580;23;20099;-82
2022/08/10 02:02:04;;;;;;;1.95;1.10;;;;;;;20.70;41.00;97358.28;6214695;23;20028;-82
2022/08/10 02:04:35;;;;;;;1.63;1.10;;;;;;;20.65;40.94;97358.97;6215598;23;20027;-81
2022/08/10 02:07:07;;;;;;;2.42;1.42;;;;;;;20.62;41.22;97354.13;6215461;23;20056;-82
2022/08/10 02:09:39;;;;;;;1.40;1.30;;;;;;;20.61;40.80;97357.00;6215626;23;20078;-82
2022/08/10 02:12:09;;;;;;;2.50;1.50;;;;;;;20.59;41.12;97359.88;6214971;23;20017;-82
2022/08/10 02:14:41;;;;;;;1.15;1.10;;;;;;;20.58;41.10;97358.28;6215471;23;20388;-82
2022/08/10 02:17:13;;;;;;;1.60;1.50;;;;;;;20.56;41.18;97358.44;6215389;23;20021;-82
2022/08/10 02:20:03;;;;;;;3.00;1.40;;;;;;;20.56;41.04;97361.09;6214817;23;20268;-82
2022/08/10 02:22:31;;;;;;;1.60;1.35;;;;;;;20.55;41.00;97354.19;6215677;23;20025;-82
2022/08/10 02:25:06;;;;;;;2.20;1.45;;;;;;;20.54;41.13;97363.16;6215277;23;20028;-82
2022/08/10 02:27:33;;;;;;;1.73;1.50;;;;;;;20.54;41.38;97357.88;6215686;23;20021;-82
2022/08/10 02:30:04;;;;;;;6.07;1.58;;;;;;;20.53;41.20;97356.28;6214880;23;20024;-82
2022/08/10 02:32:34;;;;;;;2.55;1.50;;;;;;;20.51;41.43;97350.38;6215267;23;20096;-82
2022/08/10 02:35:10;;;;;;;1.50;1.40;;;;;;;20.50;41.24;97346.09;6218114;23;20025;-81
2022/08/10 02:37:51;;;;;;;4.32;1.15;;;;;;;20.49;41.41;97351.66;6222285;23;20069;-80
2022/08/10 02:40:20;;;;;;;1.20;1.20;;;;;;;20.46;41.34;97344.94;6216943;23;20411;-80
2022/08/10 02:43:20;;;;;;;1.40;1.30;;;;;;;20.46;41.43;97344.13;6214918;23;20481;-82
2022/08/10 02:46:12;;;;;;;2.25;1.40;;;;;;;20.44;41.50;97347.00;6214721;23;20080;-82
2022/08/10 02:48:48;;;;;;;2.35;1.30;;;;;;;20.43;41.51;97341.94;6214789;23;20445;-82
2022/08/10 02:51:22;;;;;;;2.10;1.13;;;;;;;20.39;41.45;97344.22;6214862;23;20100;-82
2022/08/10 02:54:24;;;;;;;1.67;1.50;;;;;;;20.37;41.51;97348.94;6214374;23;20027;-82
2022/08/10 02:56:54;;;;;;;1.35;1.17;;;;;;;20.35;41.50;97348.38;6215857;23;20025;-82
2022/08/10 02:59:31;;;;;;;1.65;1.55;;;;;;;20.34;41.56;97346.75;6215275;23;20025;-82
2022/08/10 03:02:10;;;;;;;3.50;1.23;;;;;;;20.32;41.56;97346.19;6214882;23;20017;-82
2022/08/10 03:04:43;;;;;;;2.97;1.83;;;;;;;20.30;41.74;97346.41;6214995;23;20090;-81
2022/08/10 03:07:28;;;;;;;3.10;1.55;;;;;;;20.28;41.64;97345.81;6215172;23;20016;-82
2022/08/10 03:10:17;;;;;;;2.83;1.48;;;;;;;20.25;41.70;97343.63;6214557;23;20030;-82
2022/08/10 03:12:49;;;;;;;1.88;1.38;;;;;;;20.23;41.81;97339.59;6214485;23;20023;-82
2022/08/10 03:15:19;;;;;;;1.83;1.23;;;;;;;20.23;41.78;97339.59;6214984;23;20020;-82
2022/08/10 03:17:48;;;;;;;1.70;1.60;;;;;;;20.21;41.69;97341.66;6214961;23;20056;-82
2022/08/10 03:20:28;;;;;;;1.33;1.23;;;;;;;20.20;41.79;97346.13;6214591;23;20028;-82
2022/08/10 03:23:09;;;;;;;3.03;1.40;;;;;;;20.21;41.71;97346.94;6214845;23;20039;-82
2022/08/10 03:25:37;;;;;;;2.53;1.35;;;;;;;20.20;41.64;97350.63;6214936;23;20087;-82
2022/08/10 03:28:06;;;;;;;2.70;1.48;;;;;;;20.19;41.84;97349.81;6214861;23;20075;-82
2022/08/10 03:30:35;;;;;;;1.83;1.60;;;;;;;20.17;41.92;97347.38;6214313;23;20095;-81
2022/08/10 03:33:04;;;;;;;2.35;1.17;;;;;;;20.17;41.90;97354.53;6214686;23;20020;-81
2022/08/10 03:35:34;;;;;;;1.50;1.40;;;;;;;20.15;41.81;97357.41;6214657;23;20016;-80
2022/08/10 03:38:02;;;;;;;2.85;1.35;;;;;;;20.15;41.97;97360.03;6214648;23;20052;-82
2022/08/10 03:40:34;;;;;;;3.40;2.00;;;;;;;20.17;42.10;97360.63;6214158;23;20571;-81
2022/08/10 03:43:17;;;;;;;1.88;1.42;;;;;;;20.23;43.88;97352.84;6214367;23;20024;-82
2022/08/10 03:45:48;;;;;;;1.48;1.38;;;;;;;20.28;43.31;97358.25;6184588;23;20055;-82
2022/08/10 03:48:24;;;;;;;1.60;1.50;;;;;;;20.33;43.79;97355.72;6184619;23;20021;-82
2022/08/10 03:51:14;;;;;;;2.22;1.65;;;;;;;20.34;43.88;97360.00;6183867;23;20489;-82
2022/08/10 03:53:42;;;;;;;2.33;1.40;;;;;;;20.34;44.12;97352.06;6183999;23;20104;-82
2022/08/10 03:56:31;;;;;;;2.22;1.65;;;;;;;20.32;43.29;97357.56;6184361;23;20112;-82
2022/08/10 03:58:59;;;;;;;2.45;1.38;;;;;;;20.29;43.42;97359.84;6184655;23;20424;-82
2022/08/10 04:01:28;;;;;;;1.98;1.67;;;;;;;20.24;43.22;97357.09;6184192;23;20401;-82
2022/08/10 04:04:16;;;;;;;2.05;1.50;;;;;;;20.18;43.63;97358.78;6184879;23;20357;-82
2022/08/10 04:06:52;;;;;;;1.52;1.42;;;;;;;20.12;43.96;97351.75;6186396;23;20043;-82
2022/08/10 04:09:22;;;;;;;2.33;1.60;;;;;;;20.09;44.68;97360.13;6186900;23;20055;-82
2022/08/10 04:11:50;;;;;;;2.53;1.63;;;;;;;20.05;44.23;97354.50;6185826;23;20079;-82
2022/08/10 04:14:17;;;;;;;1.77;1.50;;;;;;;20.06;44.47;97356.09;6186663;23;20052;-82
2022/08/10 04:17:05;;;;;;;1.75;1.60;;;;;;;20.07;44.53;97362.19;6186136;23;20021;-80
2022/08/10 04:19:43;;;;;;;1.50;1.40;;;;;;;20.07;44.07;97368.31;6186285;23;20013;-82
2022/08/10 04:22:16;;;;;;;2.92;1.55;;;;;;;20.06;43.41;97369.34;6186074;23;20021;-82
2022/08/10 04:24:46;;;;;;;1.60;1.45;;;;;;;20.05;43.67;97369.56;6186750;23;20073;-82
2022/08/10 04:27:14;;;;;;;1.55;1.30;;;;;;;20.02;43.25;97370.81;6186429;23;20032;-81
2022/08/10 04:32:46;;;;;;;2.05;1.65;;;;;;;20.01;44.80;97384.28;6158625;23;20029;-79
2022/08/10 04:35:17;;;;;;;3.42;1.75;;;;;;;20.04;45.04;97378.53;6164478;23;20080;-80
2022/08/10 04:37:48;;;;;;;6.85;2.55;;;;;;;20.05;44.47;97380.97;6158208;23;20758;-82
2022/08/10 04:40:18;;;;;;;5.55;2.03;;;;;;;20.05;44.88;97380.97;6159684;23;20025;-83
2022/08/10 04:42:57;;;;;;;5.20;1.92;;;;;;;20.03;44.15;97376.91;6156839;23;20026;-82
2022/08/10 04:45:31;;;;;;;3.08;1.80;;;;;;;20.03;44.71;97377.75;6159108;23;20053;-81
2022/08/10 04:48:19;;;;;;;2.38;1.60;;;;;;;20.05;45.88;97375.69;6157487;23;20360;-80
2022/08/10 04:51:06;;;;;;;2.83;1.73;;;;;;;20.06;45.50;97382.56;6156103;23;20096;-82
2022/08/10 04:53:43;;;;;;;2.45;1.50;;;;;;;20.06;44.73;97381.78;6156484;23;20029;-80
2022/08/10 04:56:30;;;;;;;2.72;1.73;;;;;;;20.02;44.75;97384.06;6156071;23;20025;-82
2022/08/10 04:58:59;;;;;;;1.98;1.77;;;;;;;20.00;45.43;97382.66;6156738;23;20025;-82
2022/08/10 05:01:27;;;;;;;3.42;2.00;;;;;;;19.96;45.07;97387.59;6155818;23;20025;-82
2022/08/10 05:04:14;;;;;;;1.60;1.50;;;;;;;19.95;45.82;97392.06;6158184;23;20028;-78
2022/08/10 05:07:02;;;;;;;5.57;2.13;;;;;;;19.91;44.79;97390.09;6155735;23;20361;-77
2022/08/10 05:09:30;;;;;;;4.57;1.92;;;;;;;19.88;45.61;97396.66;6155133;23;20041;-78
2022/08/10 05:11:58;;;;;;;14.40;2.58;;;;;;;19.88;45.93;97398.50;6155535;23;20029;-78
2022/08/10 05:14:26;;;;;;;1.80;1.70;;;;;;;19.86;45.85;97397.91;6155657;23;20105;-78
2022/08/10 05:16:55;;;;;;;3.60;1.75;;;;;;;19.85;45.70;97394.44;6155677;23;20096;-78
2022/08/10 05:19:23;;;;;;;3.53;1.80;;;;;;;19.85;46.48;97393.63;6155632;23;20032;-78
2022/08/10 05:22:10;;;;;;;4.63;1.55;;;;;;;19.84;45.27;97390.19;6155092;23;20030;-78
2022/08/10 05:24:39;;;;;;;1.63;1.50;;;;;;;19.85;45.52;97399.72;6155664;23;20480;-77
2022/08/10 05:27:07;;;;;;;4.43;2.00;;;;;;;19.88;45.08;97385.25;6155391;23;20540;-78
2022/08/10 05:29:37;;;;;;;3.83;1.50;;;;;;;19.91;44.50;97384.81;6155840;23;20357;-78
2022/08/10 05:32:05;;;;;;;4.20;1.30;;;;;;;19.93;44.14;97380.09;6154462;23;20045;-78
2022/08/10 05:34:32;;;;;;;3.70;2.35;;;;;;;19.94;43.85;97379.06;6155212;23;20060;-78
2022/08/10 05:37:01;;;;;;;2.00;1.42;;;;;;;19.96;43.68;97383.13;6155297;23;20633;-80
2022/08/10 05:39:29;;;;;;;3.58;1.30;;;;;;;19.99;43.42;97375.75;6154820;23;20097;-79
2022/08/10 05:44:34;;;;;;;2.67;1.85;;;;;;;20.05;43.04;97380.97;6159516;23;20025;-74
2022/08/10 05:47:01;;;;;;;2.58;1.13;;;;;;;20.08;43.11;97379.72;6155788;23;20080;-75
2022/08/10 05:49:29;;;;;;;2.67;1.33;;;;;;;20.11;43.09;97379.25;6155548;23;20028;-75
2022/08/10 05:54:58;;;;;;;2.78;1.20;;;;;;;20.16;42.79;97385.50;6158235;23;20027;-80
2022/08/10 05:58:03;;;;;;;2.38;1.27;;;;;;;20.17;42.71;97381.81;6200210;23;20072;-80
2022/08/10 06:00:36;;;;;;;2.00;1.30;;;;;;;20.21;42.86;97387.50;6213389;23;20069;-78
2022/08/10 06:03:14;;;;;;;3.35;1.30;;;;;;;20.25;42.60;97380.72;6184238;23;20028;-78
2022/08/10 06:05:44;;;;;;;3.20;1.23;;;;;;;20.30;42.68;97393.28;6184076;23;20017;-79
2022/08/10 06:08:15;;;;;;;1.40;1.15;;;;;;;20.33;42.55;97385.72;6185494;23;20049;-79
2022/08/10 06:10:45;;;;;;;4.83;1.50;;;;;;;20.38;42.25;97390.31;6185098;23;20032;-78
2022/08/10 06:16:42;;;;;;;1.52;1.35;;;;;;;20.49;42.34;97380.81;6184379;23;20025;-78
2022/08/10 06:19:11;;;;;;;3.40;1.25;;;;;;;20.56;42.31;97384.97;6185176;23;20080;-78
2022/08/10 06:21:42;;;;;;;1.80;1.08;;;;;;;20.62;42.38;97395.72;6184895;23;20071;-76
2022/08/10 06:24:29;;;;;;;1.30;1.20;;;;;;;20.69;42.23;97391.13;6184902;23;20028;-77
2022/08/10 06:26:58;;;;;;;2.08;1.40;;;;;;;20.76;42.16;97391.84;6184923;23;20032;-76
2022/08/10 06:29:29;;;;;;;3.50;1.40;;;;;;;20.82;41.79;97398.09;6184395;23;20032;-76
2022/08/10 06:31:59;;;;;;;1.88;1.52;;;;;;;20.87;41.82;97391.06;6184468;23;20274;-77
2022/08/10 06:34:31;;;;;;;3.22;1.42;;;;;;;20.93;42.09;97392.81;6184674;23;20025;-77
2022/08/10 06:37:01;;;;;;;2.70;1.17;;;;;;;21.00;41.82;97390.03;6185047;23;20052;-76
2022/08/10 06:39:29;;;;;;;2.47;1.30;;;;;;;21.09;41.61;97382.56;6184824;23;20025;-76
2022/08/10 06:42:10;;;;;;;2.63;1.30;;;;;;;21.17;41.40;97390.97;6184108;23;20013;-76
2022/08/10 06:44:48;;;;;;;3.60;1.27;;;;;;;21.24;41.34;97382.09;6185104;23;20076;-77
2022/08/10 06:47:19;;;;;;;4.72;1.67;;;;;;;21.32;41.41;97389.72;6186801;23;20389;-76
2022/08/10 06:49:54;;;;;;;2.47;1.55;;;;;;;21.41;41.23;97398.97;6196009;23;20013;-77
2022/08/10 06:52:29;;;;;;;2.38;1.52;;;;;;;21.50;41.09;97394.94;6209282;23;20055;-77
2022/08/10 06:54:59;;;;;;;1.42;1.13;;;;;;;21.60;40.76;97394.31;6203721;23;20049;-77
2022/08/10 06:57:30;;;;;;;1.75;1.10;;;;;;;21.69;40.75;97397.44;6189645;23;20025;-76
2022/08/10 07:00:01;;;;;;;3.08;1.40;;;;;;;21.78;40.42;97393.41;6204066;23;20033;-76
2022/08/10 07:02:44;;;;;;;2.75;1.50;;;;;;;21.87;40.40;97380.56;6200983;23;20032;-76
2022/08/10 07:05:16;;;;;;;3.05;1.20;;;;;;;21.94;39.92;97391.84;6187306;23;20021;-77
2022/08/10 07:07:46;;;;;;;3.78;1.38;;;;;;;22.00;40.00;97385.59;6186274;23;20537;-77
2022/08/10 07:10:19;;;;;;;5.43;1.20;;;;;;;22.09;40.00;97384.19;6185001;23;20056;-76
2022/08/10 07:12:48;;;;;;;3.00;1.33;;;;;;;22.19;39.73;97388.88;6185054;23;20017;-77
2022/08/10 07:15:17;;;;;;;3.85;1.10;;;;;;;22.26;39.63;97375.47;6184590;23;20040;-76
2022/08/10 07:17:47;;;;;;;4.07;1.52;;;;;;;22.33;39.57;97384.94;6185291;23;20075;-76
2022/08/10 07:20:17;;;;;;;2.40;1.17;;;;;;;22.44;39.58;97380.63;6184472;23;20056;-76
2022/08/10 07:22:48;;;;;;;4.15;1.63;;;;;;;22.56;39.47;97381.34;6184649;23;20353;-77
2022/08/10 07:25:39;;;;;;;2.13;1.33;;;;;;;22.68;39.77;97375.97;6184233;23;20070;-76
2022/08/10 07:28:08;;;;;;;1.23;1.08;;;;;;;22.79;39.06;97383.06;6185164;23;20025;-77
2022/08/10 07:30:38;;;;;;;3.30;1.13;;;;;;;22.88;38.83;97383.50;6185226;23;20403;-76
2022/08/10 07:33:07;;;;;;;1.83;1.33;;;;;;;22.98;38.89;97386.31;6185090;23;20091;-77
2022/08/10 07:35:37;;;;;;;1.25;0.88;;;;;;;23.10;38.28;97388.13;6184259;23;20053;-77
2022/08/10 07:38:12;;;;;;;1.88;1.30;;;;;;;23.21;38.77;97389.88;6184361;23;20075;-77
2022/08/10 07:40:41;;;;;;;1.85;1.15;;;;;;;23.31;37.97;97386.53;6184105;23;20025;-77
2022/08/10 07:43:10;;;;;;;5.82;1.40;;;;;;;23.39;37.34;97381.63;6184273;23;20025;-77
2022/08/10 07:45:39;;;;;;;2.97;1.70;;;;;;;23.47;37.25;97387.59;6187600;23;20524;-78
2022/08/10 07:48:13;;;;;;;6.95;1.45;;;;;;;23.55;37.31;97385.31;6184864;23;20092;-77
2022/08/10 07:50:43;;;;;;;1.45;1.20;;;;;;;23.64;36.60;97383.03;6184794;23;20092;-76
2022/08/10 07:53:17;;;;;;;1.73;1.02;;;;;;;23.70;36.48;97391.88;6188279;23;20025;-77
2022/08/10 07:55:47;;;;;;;4.45;1.17;;;;;;;23.76;36.65;97397.06;6187463;23;20041;-77
2022/08/10 07:58:38;;;;;;;4.95;1.73;;;;;;;23.85;36.27;97390.28;6187645;23;20048;-77
2022/08/10 08:01:06;;;;;;;2.58;1.45;;;;;;;23.94;36.14;97395.97;6186507;23;20040;-79
2022/08/10 08:03:36;;;;;;;4.82;1.08;;;;;;;24.00;35.96;97392.28;6187481;23;20026;-76
2022/08/10 08:06:05;;;;;;;2.53;1.10;;;;;;;24.07;35.54;97392.09;6184990;23;20148;-76
2022/08/10 08:08:40;;;;;;;3.05;1.20;;;;;;;24.14;35.75;97398.06;6185035;23;20020;-75
2022/08/10 08:11:09;;;;;;;2.80;1.38;;;;;;;24.19;35.29;97395.44;6184552;23;20511;-76
2022/08/10 08:13:55;;;;;;;4.45;1.17;;;;;;;24.29;35.57;97385.94;6186005;23;20083;-76
2022/08/10 08:16:24;;;;;;;3.67;1.08;;;;;;;24.36;35.27;97383.88;6185590;23;20095;-76
2022/08/10 08:18:55;;;;;;;2.05;1.45;;;;;;;24.44;35.25;97384.22;6185672;23;20099;-76
2022/08/10 08:21:43;;;;;;;2.22;1.20;;;;;;;24.56;35.30;97384.13;6183957;23;20021;-77
2022/08/10 08:24:34;;;;;;;3.75;1.10;;;;;;;24.68;35.18;97392.75;6184479;23;20465;-76
2022/08/10 08:27:04;;;;;;;1.48;1.25;;;;;;;24.78;35.20;97385.94;6185160;23;20100;-76
2022/08/10 08:29:35;;;;;;;3.40;1.45;;;;;;;24.87;34.67;97395.06;6184388;23;20021;-77
2022/08/10 08:32:04;;;;;;;4.50;2.15;;;;;;;24.93;34.46;97388.72;6184182;23;20049;-76
2022/08/10 08:34:36;;;;;;;3.63;1.30;;;;;;;25.00;34.46;97380.50;6184345;23;20362;-77
2022/08/10 08:37:05;;;;;;;2.25;1.30;;;;;;;25.08;34.71;97386.16;6184085;23;20408;-76
2022/08/10 08:39:35;;;;;;;2.22;1.38;;;;;;;25.18;34.07;97385.44;6184440;23;20025;-77
2022/08/10 08:42:15;;;;;;;1.67;1.30;;;;;;;25.24;33.48;97378.31;6183932;23;20021;-77
2022/08/10 08:44:59;;;;;;;1.65;1.00;;;;;;;25.28;33.11;97382.06;6184580;23;20052;-76
2022/08/10 08:47:59;;;;;;;1.65;0.82;;;;;;;25.33;33.07;97374.09;6183538;23;20075;-78
2022/08/10 08:50:47;;;;;;;1.92;1.00;;;;;;;25.49;32.94;97372.28;6164596;23;20108;-76
2022/08/10 08:53:22;;;;;;;;;;;;;;;25.61;32.81;97372.91;6186762;23;20052;-76
2022/08/10 08:56:23;;;;;;;1.92;1.08;;;;;;;25.74;31.95;97390.34;6185856;23;19996;-76
2022/08/10 08:59:08;;;;;;;3.65;0.95;;;;;;;25.82;31.70;97368.47;6186330;23;20107;-76
2022/08/10 09:01:53;;;;;;;2.13;1.08;;;;;;;25.95;31.74;97377.09;6198153;23;20067;-77
2022/08/10 09:04:37;;;;;;;2.97;1.13;;;;;;;26.02;31.52;97382.97;6192706;23;20024;-77
2022/08/10 09:07:34;;;;;;;2.58;1.50;;;;;;;26.09;31.39;97383.56;6187220;23;20349;-76
2022/08/10 09:10:33;;;;;;;1.40;0.90;;;;;;;26.19;30.56;97388.13;6185325;23;20023;-77
2022/08/10 09:13:09;;;;;;;3.35;1.20;;;;;;;26.25;30.74;97382.53;6185732;23;20028;-77
2022/08/10 09:15:46;;;;;;;2.10;1.10;;;;;;;26.28;30.13;97381.19;6185591;23;20100;-77
2022/08/10 09:18:21;;;;;;;4.28;0.80;;;;;;;26.31;30.54;97376.13;6185139;23;20032;-76
2022/08/10 09:20:55;;;;;;;4.13;1.08;;;;;;;26.36;30.39;97375.34;6183979;23;20064;-77
2022/08/10 09:23:31;;;;;;;2.28;0.82;;;;;;;26.38;29.78;97385.78;6185851;23;20407;-77
2022/08/10 09:26:22;;;;;;;3.38;1.25;;;;;;;26.43;29.21;97380.44;6185000;23;20017;-77
2022/08/10 09:28:54;;;;;;;2.33;0.98;;;;;;;26.43;29.25;97377.75;6186068;23;20063;-77
2022/08/10 09:31:44;;;;;;;3.88;0.85;;;;;;;26.49;29.20;97384.72;6185439;23;20021;-77
2022/08/10 09:34:44;;;;;;;3.60;0.90;;;;;;;26.55;28.99;97378.31;6185459;23;20100;-77
2022/08/10 09:37:39;;;;;;;3.72;0.90;;;;;;;26.54;28.75;97374.03;6185176;23;20025;-77
2022/08/10 09:40:36;;;;;;;3.22;0.98;;;;;;;26.55;28.63;97370.28;6184642;23;20029;-77
2022/08/10 09:43:31;;;;;;;1.50;0.90;;;;;;;26.50;28.87;97375.63;6185055;23;20024;-77
2022/08/10 09:46:06;;;;;;;2.05;0.70;;;;;;;26.47;28.56;97358.22;6185643;23;20024;-77
2022/08/10 09:48:50;;;;;;;1.30;0.90;;;;;;;26.51;28.34;97371.88;6184996;23;20179;-77
2022/08/10 09:51:29;;;;;;;3.92;0.90;;;;;;;26.64;28.28;97374.06;6184973;23;20095;-78
2022/08/10 09:54:41;;;;;;;3.88;1.40;;;;;;;26.77;27.99;97362.03;6184950;23;20356;-77
2022/08/10 09:57:20;;;;;;;1.58;1.00;;;;;;;26.83;27.79;97384.25;6185452;23;20052;-77
2022/08/10 10:00:11;;;;;;;1.30;0.90;;;;;;;26.78;28.13;97373.53;6184910;23;20032;-77
2022/08/10 10:02:57;;;;;;;1.70;0.88;;;;;;;26.74;28.36;97373.25;6193142;23;20028;-79
2022/08/10 10:05:36;;;;;;;2.30;0.90;;;;;;;26.72;28.97;97370.06;6209405;23;20024;-77
2022/08/10 10:08:13;;;;;;;1.50;0.65;;;;;;;26.74;28.51;97351.06;6201305;23;20380;-78
2022/08/10 10:10:51;;;;;;;7.07;0.95;;;;;;;26.82;28.51;97358.56;6185014;23;20096;-77
2022/08/10 10:13:31;;;;;;;2.28;1.00;;;;;;;26.97;28.22;97345.16;6184709;23;20096;-77
2022/08/10 10:16:40;;;;;;;6.68;1.90;;;;;;;27.12;27.55;97350.50;6189061;23;20101;-76
2022/08/10 10:19:27;;;;;;;2.15;0.88;;;;;;;27.27;27.30;97365.78;6184987;23;20021;-77
2022/08/10 10:22:12;;;;;;;5.00;0.88;;;;;;;27.37;25.65;97370.31;6184968;23;20060;-77
2022/08/10 10:24:45;;;;;;;1.58;0.77;;;;;;;27.38;26.03;97365.75;6209122;23;20028;-77
2022/08/10 10:27:25;;;;;;;2.05;0.80;;;;;;;27.41;26.27;97360.66;6211993;23;20017;-77
2022/08/10 10:30:00;;;;;;;7.70;0.85;;;;;;;27.41;25.96;97366.00;6194186;23;20031;-76
2022/08/10 10:32:41;;;;;;;3.65;0.82;;;;;;;27.40;26.01;97364.41;6186163;23;20060;-77
2022/08/10 10:35:16;;;;;;;1.33;0.85;;;;;;;27.44;25.87;97354.75;6185846;23;20032;-77
2022/08/10 10:37:46;;;;;;;4.60;0.90;;;;;;;27.48;26.01;97353.13;6185532;23;20052;-77
2022/08/10 10:40:35;;;;;;;3.10;1.10;;;;;;;27.54;26.88;97343.19;6184724;23;20095;-76
2022/08/10 10:43:15;;;;;;;7.75;1.67;;;;;;;27.61;26.63;97342.91;6185440;23;20353;-77
2022/08/10 10:45:57;;;;;;;1.35;1.08;;;;;;;27.65;25.97;97343.97;6185269;23;20088;-78
2022/08/10 10:48:38;;;;;;;1.73;0.70;;;;;;;27.67;25.81;97331.09;6185244;23;20025;-77
2022/08/10 10:51:12;;;;;;;1.60;0.97;;;;;;;27.77;25.63;97330.25;6184960;23;20024;-77
2022/08/10 10:53:49;;;;;;;1.27;0.77;;;;;;;27.87;26.06;97331.03;6185498;23;20032;-77
2022/08/10 10:56:24;;;;;;;1.50;0.77;;;;;;;27.96;25.70;97333.16;6185625;23;20026;-78
2022/08/10 10:59:03;;;;;;;0.77;0.77;;;;;;;28.02;25.72;97334.72;6185970;23;20061;-79
2022/08/10 11:02:01;;;;;;;2.00;0.68;;;;;;;28.03;25.25;97337.13;6187064;23;20027;-79
2022/08/10 11:04:39;;;;;;;0.70;0.70;;;;;;;28.00;25.31;97326.16;6187653;23;20032;-78
2022/08/10 11:07:17;;;;;;;1.90;1.05;;;;;;;27.99;25.29;97336.09;6186833;23;20017;-78
2022/08/10 11:10:02;;;;;;;1.90;0.73;;;;;;;27.99;24.83;97337.94;6187193;23;20095;-79
2022/08/10 11:12:57;;;;;;;3.77;0.97;;;;;;;27.94;24.96;97330.72;6186879;23;20104;-77
2022/08/10 11:15:57;;;;;;;7.10;1.10;;;;;;;27.91;25.22;97334.78;6186695;23;20429;-78
2022/08/10 11:18:32;;;;;;;1.00;0.82;;;;;;;27.91;25.12;97317.88;6186584;23;20021;-78
2022/08/10 11:21:22;;;;;;;1.35;0.77;;;;;;;27.91;24.65;97315.19;6185903;23;20023;-78
2022/08/10 11:23:57;;;;;;;1.00;0.90;;;;;;;27.96;25.19;97341.19;6186220;23;20047;-77
2022/08/10 11:26:48;;;;;;;2.58;0.90;;;;;;;28.03;25.24;97330.94;6185319;23;20017;-79
2022/08/10 11:29:23;;;;;;;1.65;0.70;;;;;;;28.02;25.00;97319.44;6187084;23;20079;-78
2022/08/10 11:32:00;;;;;;;2.10;0.70;;;;;;;27.99;25.09;97327.22;6185904;23;20063;-78
2022/08/10 11:34:35;;;;;;;1.48;0.82;;;;;;;27.91;23.89;97326.72;6185404;23;20407;-78
2022/08/10 11:37:34;;;;;;;1.00;0.85;;;;;;;27.88;24.21;97315.75;6185834;23;20028;-79
2022/08/10 11:40:27;;;;;;;2.10;0.70;;;;;;;27.83;24.02;97324.59;6185936;23;20031;-80
2022/08/10 11:43:05;;;;;;;2.25;0.73;;;;;;;27.80;24.16;97319.78;6187871;22;20069;-76
2022/08/10 11:45:36;;;;;;;0.80;0.80;;;;;;;27.77;24.81;97316.84;6214431;23;20099;-77
2022/08/10 11:48:27;;;;;;;1.27;0.68;;;;;;;27.78;24.48;97321.94;6215007;23;20337;-77
2022/08/10 11:51:21;;;;;;;1.48;0.60;;;;;;;27.80;24.24;97313.63;6213701;23;20486;-77
2022/08/10 11:53:56;;;;;;;1.10;0.90;;;;;;;27.81;24.75;97310.66;6214167;23;20360;-78
2022/08/10 11:56:29;;;;;;;1.98;0.77;;;;;;;27.84;24.53;97310.13;6213880;23;20060;-78
2022/08/10 12:01:47;;;;;;;1.80;0.73;;;;;;;27.84;24.41;97312.00;6214795;23;20032;-78
2022/08/10 12:04:16;;;;;;;1.65;0.63;;;;;;;27.82;24.55;97306.91;6215499;23;20028;-77
2022/08/10 12:06:47;;;;;;;2.70;0.98;;;;;;;27.86;24.36;97309.88;6216567;23;20020;-78
2022/08/10 12:09:24;;;;;;;4.18;0.80;;;;;;;27.88;24.63;97305.84;6215971;23;20456;-78
2022/08/10 12:12:13;;;;;;;2.05;0.65;;;;;;;27.89;24.13;97299.38;6215916;23;20429;-77
2022/08/10 12:14:46;;;;;;;1.27;0.70;;;;;;;27.89;24.47;97295.91;6215939;23;20024;-77
2022/08/10 12:17:18;;;;;;;2.03;0.60;;;;;;;27.90;24.23;97303.69;6216089;23;20017;-77
2022/08/10 12:19:55;;;;;;;1.58;0.80;;;;;;;27.89;24.46;97296.69;6216406;23;20103;-79
2022/08/10 12:22:35;;;;;;;1.98;1.10;;;;;;;27.91;24.90;97288.38;6216621;23;20469;-78
2022/08/10 12:25:09;;;;;;;1.95;0.60;;;;;;;27.92;24.07;97292.66;6216396;23;20027;-77
2022/08/10 12:27:41;;;;;;;2.42;0.60;;;;;;;27.94;24.14;97295.88;6218248;23;20507;-78
2022/08/10 12:30:13;;;;;;;3.60;0.95;;;;;;;27.94;24.20;97285.97;6217980;23;20055;-77
2022/08/10 12:32:48;;;;;;;0.75;0.73;;;;;;;27.94;23.67;97302.06;6217610;23;20087;-79